Time;durP1;ratioP1;P1;durP2;ratioP2;P2;SDS_P1;SDS_P2;PMS_P1;PMS_P2;Temp;Humidity;BMP_temperature;BMP_pressure;BME280_temperature;BME280_humidity;BME280_pressure;Samples;Min_cycle;Max_cycle;Signal;HPM_P1;HPM_P2
2022/08/09 00:00:09;;;;;;;0.40;0.20;;;29.00;34.50;;;;;;5050511;28;20064;-63
2022/08/09 00:02:40;;;;;;;4.53;0.22;;;29.00;34.60;;;;;;5050418;28;20045;-63
2022/08/09 00:05:07;;;;;;;1.70;0.13;;;28.90;34.60;;;;;;5050548;28;20080;-64
2022/08/09 00:07:36;;;;;;;1.42;0.55;;;28.90;34.60;;;;;;5043947;28;20065;-61
2022/08/09 00:10:05;;;;;;;4.40;0.40;;;28.90;34.70;;;;;;5050349;28;20065;-62
2022/08/09 00:12:32;;;;;;;2.30;0.20;;;28.80;34.70;;;;;;5050045;28;20041;-62
2022/08/09 00:14:59;;;;;;;0.30;0.20;;;28.80;34.80;;;;;;5049128;28;20156;-62
2022/08/09 00:17:26;;;;;;;2.28;0.40;;;28.80;35.00;;;;;;5050292;28;20586;-62
2022/08/09 00:19:53;;;;;;;1.80;0.38;;;28.80;35.10;;;;;;5050376;28;20068;-62
2022/08/09 00:22:20;;;;;;;0.73;0.10;;;28.70;35.10;;;;;;5050059;28;20045;-62
2022/08/09 00:24:48;;;;;;;4.22;0.10;;;28.70;35.20;;;;;;5050389;28;20056;-62
2022/08/09 00:27:15;;;;;;;1.95;0.20;;;28.70;35.30;;;;;;5049854;28;20040;-62
2022/08/09 00:29:42;;;;;;;0.20;0.20;;;28.70;35.40;;;;;;5050200;28;20039;-61
2022/08/09 00:32:09;;;;;;;0.20;0.17;;;28.60;35.40;;;;;;5050324;28;20057;-61
2022/08/09 00:34:36;;;;;;;1.85;0.10;;;28.60;35.40;;;;;;5050297;28;20040;-62
2022/08/09 00:37:04;;;;;;;1.17;0.10;;;28.60;35.60;;;;;;5050016;28;20196;-62
2022/08/09 00:39:31;;;;;;;2.10;0.10;;;28.60;35.60;;;;;;5049635;28;20037;-61
2022/08/09 00:41:59;;;;;;;4.05;0.10;;;28.50;35.60;;;;;;5049852;28;20139;-62
2022/08/09 00:44:26;;;;;;;0.43;0.17;;;28.50;35.70;;;;;;5059029;28;20047;-61
2022/08/09 00:46:53;;;;;;;2.28;0.10;;;28.50;36.40;;;;;;5053946;28;20053;-61
2022/08/09 00:49:20;;;;;;;0.25;0.10;;;28.40;35.80;;;;;;5049865;28;20063;-62
2022/08/09 00:51:48;;;;;;;1.35;0.10;;;28.40;35.90;;;;;;5049995;28;20065;-61
2022/08/09 00:54:15;;;;;;;0.63;0.10;;;28.30;35.90;;;;;;5050065;28;20044;-60
2022/08/09 00:56:42;;;;;;;2.63;0.63;;;28.30;35.90;;;;;;5049429;28;20064;-61
2022/08/09 00:59:11;;;;;;;1.38;0.13;;;28.30;36.00;;;;;;5049720;28;20139;-61
2022/08/09 01:01:40;;;;;;;0.88;0.17;;;28.30;36.10;;;;;;5049992;28;20049;-61
2022/08/09 01:04:17;;;;;;;1.02;0.38;;;28.30;36.20;;;;;;5049657;28;20041;-62
2022/08/09 01:06:52;;;;;;;2.03;0.30;;;28.20;36.30;;;;;;5046603;28;20124;-62
2022/08/09 01:09:26;;;;;;;2.17;0.20;;;28.20;36.40;;;;;;5049750;28;20110;-62
2022/08/09 01:11:59;;;;;;;1.67;0.10;;;28.20;36.50;;;;;;5048014;28;20077;-62
2022/08/09 01:14:32;;;;;;;1.60;0.10;;;28.20;36.60;;;;;;5049498;28;20120;-63
2022/08/09 01:17:06;;;;;;;0.10;0.10;;;28.10;36.60;;;;;;5049107;28;20093;-63
2022/08/09 01:19:42;;;;;;;0.40;0.10;;;28.10;36.70;;;;;;5049296;28;20504;-61
2022/08/09 01:22:29;;;;;;;1.08;0.35;;;28.10;36.80;;;;;;5049349;28;20141;-61
2022/08/09 01:25:10;;;;;;;3.55;0.08;;;28.00;36.80;;;;;;5048609;28;20809;-62
2022/08/09 01:27:40;;;;;;;4.57;0.22;;;28.00;36.90;;;;;;5039628;28;20516;-62
2022/08/09 01:30:09;;;;;;;0.60;0.13;;;28.00;37.00;;;;;;5055509;28;20398;-62
2022/08/09 01:32:38;;;;;;;0.50;0.10;;;27.90;37.00;;;;;;5041493;28;20059;-63
2022/08/09 01:35:10;;;;;;;0.70;0.10;;;27.90;37.10;;;;;;5048674;28;20585;-62
2022/08/09 01:37:39;;;;;;;0.52;0.10;;;27.90;37.20;;;;;;5049225;28;20170;-61
2022/08/09 01:40:09;;;;;;;5.53;0.10;;;27.90;37.30;;;;;;5048822;28;20045;-61
2022/08/09 01:42:38;;;;;;;6.43;0.30;;;27.80;37.30;;;;;;5048762;28;20069;-60
2022/08/09 01:45:08;;;;;;;0.22;0.10;;;27.80;37.40;;;;;;5048901;28;20041;-61
2022/08/09 01:47:37;;;;;;;0.75;0.10;;;27.80;37.50;;;;;;5048816;28;20386;-61
2022/08/09 01:50:04;;;;;;;0.65;0.10;;;27.80;37.50;;;;;;5048369;28;20139;-61
2022/08/09 01:52:34;;;;;;;0.63;0.10;;;27.70;37.50;;;;;;5048051;28;20502;-61
2022/08/09 01:55:03;;;;;;;1.42;0.17;;;27.70;37.70;;;;;;5048246;28;20033;-62
2022/08/09 01:57:38;;;;;;;3.13;0.10;;;27.70;37.80;;;;;;5048645;28;20459;-61
2022/08/09 02:00:09;;;;;;;3.75;0.10;;;27.70;37.80;;;;;;5045531;28;20048;-62
2022/08/09 02:02:43;;;;;;;1.55;0.10;;;27.70;37.90;;;;;;5054271;28;20055;-62
2022/08/09 02:05:14;;;;;;;4.60;0.10;;;27.60;37.90;;;;;;5047972;28;20045;-62
2022/08/09 02:07:45;;;;;;;2.38;0.10;;;27.60;38.00;;;;;;5034192;28;20124;-61
2022/08/09 02:10:23;;;;;;;0.50;0.10;;;27.60;38.00;;;;;;5048062;28;20056;-61
2022/08/09 02:12:54;;;;;;;2.55;1.17;;;27.50;38.00;;;;;;5046727;28;20490;-61
2022/08/09 02:15:25;;;;;;;4.20;1.45;;;27.50;38.10;;;;;;5049654;28;20033;-61
2022/08/09 02:17:54;;;;;;;0.68;0.10;;;27.50;38.20;;;;;;5047713;28;20037;-61
2022/08/09 02:20:21;;;;;;;0.95;0.20;;;27.50;38.30;;;;;;5047600;28;20051;-61
2022/08/09 02:22:52;;;;;;;1.15;0.10;;;27.40;38.20;;;;;;5050943;28;20043;-61
2022/08/09 02:25:24;;;;;;;0.25;0.10;;;27.40;38.30;;;;;;5047929;28;20615;-61
2022/08/09 02:27:56;;;;;;;3.15;0.10;;;27.40;38.40;;;;;;5047756;28;20048;-61
2022/08/09 02:30:26;;;;;;;0.90;0.10;;;27.40;38.50;;;;;;5048051;28;20489;-61
2022/08/09 02:32:54;;;;;;;0.95;0.10;;;27.40;38.60;;;;;;5046256;28;20041;-61
2022/08/09 02:35:24;;;;;;;0.43;0.15;;;27.30;38.60;;;;;;5031162;28;20098;-61
2022/08/09 02:37:56;;;;;;;0.73;0.10;;;27.30;38.60;;;;;;5047267;28;20149;-62
2022/08/09 02:40:25;;;;;;;0.73;0.10;;;27.30;38.70;;;;;;5047672;28;20052;-61
2022/08/09 02:42:54;;;;;;;1.85;0.10;;;27.30;38.80;;;;;;5040389;28;20037;-61
2022/08/09 02:45:28;;;;;;;0.98;0.10;;;27.20;38.80;;;;;;5047420;28;20047;-62
2022/08/09 02:48:00;;;;;;;0.10;0.10;;;27.20;38.80;;;;;;5047658;28;20047;-62
2022/08/09 02:50:32;;;;;;;0.45;0.45;;;27.20;38.90;;;;;;5047377;28;20041;-61
2022/08/09 02:53:03;;;;;;;0.85;0.13;;;27.10;39.00;;;;;;5047130;28;20147;-62
2022/08/09 02:55:31;;;;;;;0.10;0.10;;;27.10;39.00;;;;;;5060374;28;20095;-62
2022/08/09 02:58:00;;;;;;;4.22;0.13;;;27.10;39.10;;;;;;5047405;28;20123;-62
2022/08/09 03:00:29;;;;;;;0.93;0.35;;;27.10;39.20;;;;;;5047615;28;20094;-61
2022/08/09 03:03:00;;;;;;;0.65;0.10;;;27.00;39.20;;;;;;5046937;28;20041;-61
2022/08/09 03:05:28;;;;;;;1.27;0.17;;;27.00;39.30;;;;;;5028759;28;20127;-62
2022/08/09 03:07:56;;;;;;;1.30;0.15;;;27.00;39.40;;;;;;5039651;28;20036;-62
2022/08/09 03:10:26;;;;;;;0.52;0.10;;;26.90;39.80;;;;;;5046783;28;20473;-61
2022/08/09 03:12:56;;;;;;;0.43;0.10;;;27.00;39.40;;;;;;5049421;28;20082;-60
2022/08/09 03:15:25;;;;;;;0.45;0.17;;;26.90;39.40;;;;;;5042959;28;20060;-61
2022/08/09 03:17:54;;;;;;;1.65;0.20;;;26.90;39.50;;;;;;5050628;28;20531;-61
2022/08/09 03:20:21;;;;;;;0.98;0.20;;;26.90;39.60;;;;;;5054487;28;20425;-61
2022/08/09 03:22:49;;;;;;;0.22;0.10;;;26.90;39.60;;;;;;5055856;28;20416;-61
2022/08/09 03:25:16;;;;;;;1.65;0.10;;;26.90;39.70;;;;;;5050530;28;20049;-61
2022/08/09 03:27:47;;;;;;;0.32;0.10;;;26.80;39.70;;;;;;5047328;28;20437;-62
2022/08/09 03:30:15;;;;;;;3.20;0.30;;;26.80;39.80;;;;;;5055937;28;20072;-62
2022/08/09 03:32:42;;;;;;;2.15;0.30;;;26.80;39.80;;;;;;5048914;28;20778;-62
2022/08/09 03:35:11;;;;;;;3.40;0.85;;;26.70;39.80;;;;;;5046249;28;20167;-63
2022/08/09 03:37:39;;;;;;;0.10;0.10;;;26.70;39.90;;;;;;5048640;28;20484;-62
2022/08/09 03:40:07;;;;;;;1.63;0.30;;;26.70;39.90;;;;;;5057485;28;20132;-63
2022/08/09 03:42:34;;;;;;;2.08;0.10;;;26.70;40.00;;;;;;5047128;28;20045;-63
2022/08/09 03:45:01;;;;;;;3.45;0.10;;;26.70;40.00;;;;;;5046689;28;20053;-63
2022/08/09 03:47:28;;;;;;;1.83;0.10;;;26.60;40.00;;;;;;5054634;28;20049;-61
2022/08/09 03:49:56;;;;;;;2.50;0.10;;;26.60;40.10;;;;;;5046283;28;20106;-61
2022/08/09 03:52:26;;;;;;;0.52;0.35;;;26.60;40.20;;;;;;5047746;28;20456;-61
2022/08/09 03:54:54;;;;;;;0.17;0.10;;;26.60;40.20;;;;;;5046920;28;20136;-61
2022/08/09 03:57:22;;;;;;;2.40;0.50;;;26.50;40.20;;;;;;5046375;28;20037;-61
2022/08/09 03:59:50;;;;;;;3.17;0.28;;;26.50;40.30;;;;;;5046507;28;20456;-61
2022/08/09 04:02:18;;;;;;;1.17;0.10;;;26.50;40.30;;;;;;5047427;28;20049;-60
2022/08/09 04:04:46;;;;;;;0.20;0.10;;;26.50;40.30;;;;;;5046520;28;20039;-61
2022/08/09 04:07:13;;;;;;;0.50;0.22;;;26.50;40.40;;;;;;5052205;28;20044;-61
2022/08/09 04:09:41;;;;;;;0.30;0.10;;;26.40;40.40;;;;;;5046535;28;20448;-61
2022/08/09 04:12:42;;;;;;;1.17;0.10;;;26.40;40.40;;;;;;5052405;28;20067;-61
2022/08/09 04:15:10;;;;;;;0.65;0.20;;;26.40;40.40;;;;;;5048972;28;20095;-61
2022/08/09 04:17:37;;;;;;;0.57;0.10;;;26.40;40.50;;;;;;5047819;28;20501;-61
2022/08/09 04:20:06;;;;;;;1.23;0.13;;;26.40;40.60;;;;;;5048875;28;20052;-62
2022/08/09 04:22:33;;;;;;;3.28;0.17;;;26.30;40.60;;;;;;5043528;28;20791;-62
2022/08/09 04:25:02;;;;;;;3.13;0.10;;;26.30;40.70;;;;;;5050118;28;20047;-62
2022/08/09 04:27:29;;;;;;;1.63;0.10;;;26.30;41.30;;;;;;5051746;28;20068;-62
2022/08/09 04:29:56;;;;;;;0.20;0.10;;;26.30;40.80;;;;;;5049817;28;20049;-62
2022/08/09 04:32:23;;;;;;;0.15;0.13;;;26.30;40.80;;;;;;5049513;28;20091;-61
2022/08/09 04:34:50;;;;;;;7.45;0.25;;;26.20;40.80;;;;;;5049770;28;20506;-61
2022/08/09 04:37:17;;;;;;;8.02;0.20;;;26.30;40.90;;;;;;5049104;28;20045;-62
2022/08/09 04:39:44;;;;;;;0.77;0.10;;;26.20;40.90;;;;;;5049605;28;20519;-61
2022/08/09 04:42:13;;;;;;;2.03;0.10;;;26.20;40.90;;;;;;5049654;28;20076;-61
2022/08/09 04:44:40;;;;;;;1.15;0.30;;;26.20;40.90;;;;;;5049630;28;20037;-61
2022/08/09 04:47:08;;;;;;;0.88;0.10;;;26.20;41.00;;;;;;5048787;28;20045;-62
2022/08/09 04:49:36;;;;;;;2.35;0.10;;;26.10;41.00;;;;;;5049319;28;20125;-61
2022/08/09 04:52:04;;;;;;;7.57;0.65;;;26.10;41.10;;;;;;5048854;28;20152;-61
2022/08/09 04:54:31;;;;;;;1.50;0.45;;;26.10;41.10;;;;;;5047615;28;20505;-61
2022/08/09 04:56:59;;;;;;;0.30;0.20;;;26.10;41.20;;;;;;5048744;28;20136;-61
2022/08/09 04:59:27;;;;;;;3.00;0.30;;;26.10;41.20;;;;;;5061722;28;20543;-62
2022/08/09 05:01:54;;;;;;;2.65;0.20;;;26.10;41.90;;;;;;5048582;28;20542;-63
2022/08/09 05:04:21;;;;;;;1.67;0.10;;;26.10;41.30;;;;;;5049187;28;20044;-62
2022/08/09 05:06:48;;;;;;;0.22;0.10;;;26.00;41.30;;;;;;5035705;28;20080;-62
2022/08/09 05:09:15;;;;;;;5.90;0.10;;;26.10;41.50;;;;;;5047987;28;20048;-61
2022/08/09 05:11:43;;;;;;;1.58;0.17;;;26.00;41.50;;;;;;5047970;28;20052;-61
2022/08/09 05:14:10;;;;;;;5.25;0.20;;;26.00;41.60;;;;;;5048948;28;20041;-62
2022/08/09 05:16:38;;;;;;;0.68;0.17;;;26.00;41.60;;;;;;5048378;28;20052;-62
2022/08/09 05:19:05;;;;;;;1.45;0.30;;;26.00;41.60;;;;;;5062040;28;20051;-63
2022/08/09 05:21:32;;;;;;;1.95;0.52;;;26.00;41.60;;;;;;5048965;28;20079;-62
2022/08/09 05:23:59;;;;;;;1.00;0.57;;;25.90;41.60;;;;;;5049030;28;20528;-62
2022/08/09 05:26:26;;;;;;;4.95;0.25;;;25.90;41.60;;;;;;5048405;28;20118;-61
2022/08/09 05:28:53;;;;;;;1.10;0.10;;;26.00;41.80;;;;;;5048924;28;20067;-62
2022/08/09 05:31:20;;;;;;;1.80;0.20;;;25.90;41.70;;;;;;5048316;28;20072;-61
2022/08/09 05:33:49;;;;;;;5.80;0.10;;;25.90;41.80;;;;;;5048729;28;20048;-62
2022/08/09 05:36:16;;;;;;;1.98;0.50;;;25.90;41.80;;;;;;5046837;28;20514;-62
2022/08/09 05:38:43;;;;;;;1.52;0.20;;;25.90;41.80;;;;;;5048639;28;20352;-61
2022/08/09 05:41:10;;;;;;;5.97;0.30;;;25.90;41.80;;;;;;5048623;28;20045;-62
2022/08/09 05:43:37;;;;;;;2.83;0.20;;;25.90;41.80;;;;;;5048713;28;20041;-62
2022/08/09 05:46:04;;;;;;;3.75;0.20;;;25.90;41.80;;;;;;5048327;28;20048;-62
2022/08/09 05:48:31;;;;;;;5.63;0.10;;;25.90;41.80;;;;;;5048443;28;20047;-61
2022/08/09 05:51:00;;;;;;;4.00;0.28;;;25.90;41.80;;;;;;5047784;28;20045;-62
2022/08/09 05:53:27;;;;;;;6.47;0.40;;;25.90;41.90;;;;;;5048554;28;20041;-62
2022/08/09 05:55:54;;;;;;;1.92;0.28;;;25.80;42.40;;;;;;5048526;28;20048;-62
2022/08/09 05:58:21;;;;;;;0.68;0.57;;;25.80;41.90;;;;;;5042314;28;20087;-62
2022/08/09 06:00:48;;;;;;;4.72;0.20;;;25.80;41.90;;;;;;5047758;28;20133;-62
2022/08/09 06:03:15;;;;;;;0.68;0.10;;;25.80;41.90;;;;;;5048243;28;20056;-63
2022/08/09 06:05:42;;;;;;;2.17;0.38;;;25.80;42.00;;;;;;5047027;28;20107;-63
2022/08/09 06:08:11;;;;;;;0.25;0.25;;;25.80;41.90;;;;;;5057313;28;20045;-62
2022/08/09 06:10:38;;;;;;;1.80;0.20;;;25.80;42.00;;;;;;5047435;28;20673;-63
2022/08/09 06:13:06;;;;;;;1.05;0.38;;;25.80;42.00;;;;;;5063480;28;20040;-63
2022/08/09 06:15:33;;;;;;;0.65;0.10;;;25.80;42.00;;;;;;5047554;28;20048;-64
2022/08/09 06:18:01;;;;;;;3.72;0.20;;;25.70;41.90;;;;;;5036627;28;20059;-64
2022/08/09 06:20:28;;;;;;;4.00;0.57;;;25.80;42.00;;;;;;5047588;28;20053;-62
2022/08/09 06:22:55;;;;;;;4.00;0.30;;;25.70;41.90;;;;;;5047355;28;20033;-61
2022/08/09 06:25:24;;;;;;;3.90;0.10;;;25.70;41.90;;;;;;5042516;28;20039;-62
2022/08/09 06:27:51;;;;;;;4.25;0.30;;;25.80;42.00;;;;;;5047905;28;20448;-63
2022/08/09 06:30:18;;;;;;;3.25;0.30;;;25.70;41.90;;;;;;5046774;28;20100;-62
2022/08/09 06:32:45;;;;;;;0.57;0.10;;;25.70;41.90;;;;;;5047197;28;20063;-62
2022/08/09 06:35:12;;;;;;;3.00;0.10;;;25.80;42.00;;;;;;5045901;28;20408;-62
2022/08/09 06:37:39;;;;;;;1.70;0.20;;;25.80;42.10;;;;;;5052677;28;20135;-62
2022/08/09 06:40:07;;;;;;;1.58;0.25;;;25.80;42.00;;;;;;5047233;28;20115;-62
2022/08/09 06:42:36;;;;;;;1.85;0.20;;;25.80;42.00;;;;;;5047389;28;20037;-62
2022/08/09 06:45:03;;;;;;;4.47;0.20;;;25.80;42.00;;;;;;5042235;28;20433;-61
2022/08/09 06:47:30;;;;;;;2.58;0.20;;;25.80;42.10;;;;;;5047412;28;20561;-62
2022/08/09 06:49:57;;;;;;;1.65;1.25;;;25.80;42.00;;;;;;5046976;28;20573;-62
2022/08/09 06:52:24;;;;;;;0.28;0.20;;;25.80;42.00;;;;;;5046735;28;20051;-62
2022/08/09 06:54:51;;;;;;;2.17;0.22;;;25.80;42.00;;;;;;5046825;28;20523;-62
2022/08/09 06:57:18;;;;;;;1.10;0.10;;;25.80;42.00;;;;;;5047150;28;20036;-62
2022/08/09 06:59:47;;;;;;;6.40;0.30;;;25.80;42.00;;;;;;5046395;28;20143;-62
2022/08/09 07:02:14;;;;;;;1.83;0.80;;;25.80;42.10;;;;;;5047284;28;20599;-62
2022/08/09 07:04:41;;;;;;;4.63;0.63;;;25.90;42.10;;;;;;5046941;28;20131;-63
2022/08/09 07:07:08;;;;;;;1.38;0.10;;;25.90;42.00;;;;;;5032380;28;20037;-62
2022/08/09 07:09:35;;;;;;;1.58;0.20;;;25.90;42.00;;;;;;5047143;28;20120;-61
2022/08/09 07:12:02;;;;;;;2.38;0.20;;;25.90;42.00;;;;;;5046491;28;20060;-61
2022/08/09 07:14:29;;;;;;;5.25;0.40;;;25.90;42.00;;;;;;5046119;28;20037;-61
2022/08/09 07:16:57;;;;;;;2.70;0.28;;;25.90;42.00;;;;;;5048600;28;20048;-61
2022/08/09 07:19:25;;;;;;;1.75;0.30;;;25.90;42.00;;;;;;5039038;28;20045;-62
2022/08/09 07:21:52;;;;;;;1.70;0.20;;;26.00;42.00;;;;;;5046892;28;20037;-61
2022/08/09 07:24:19;;;;;;;1.85;0.30;;;26.00;42.60;;;;;;5046944;28;20144;-62
2022/08/09 07:26:46;;;;;;;2.45;0.65;;;26.00;42.00;;;;;;5047128;28;20029;-51
2022/08/09 07:29:13;;;;;;;0.50;0.22;;;26.00;42.00;;;;;;5046206;28;20053;-52
2022/08/09 07:31:40;;;;;;;1.20;0.20;;;26.00;42.00;;;;;;5045638;28;20128;-51
2022/08/09 07:34:09;;;;;;;3.67;0.28;;;26.00;42.00;;;;;;5046622;28;20072;-56
2022/08/09 07:36:36;;;;;;;1.02;0.20;;;26.10;42.10;;;;;;5048869;28;20045;-55
2022/08/09 07:39:04;;;;;;;2.40;0.35;;;26.10;42.10;;;;;;5049692;28;20580;-50
2022/08/09 07:41:31;;;;;;;0.60;0.30;;;26.10;42.20;;;;;;5050753;28;20037;-46
2022/08/09 07:43:58;;;;;;;1.15;0.22;;;26.10;42.30;;;;;;5045767;28;20072;-60
2022/08/09 07:46:25;;;;;;;9.00;0.38;;;26.10;42.30;;;;;;5047617;28;20041;-55
2022/08/09 07:48:52;;;;;;;0.90;0.20;;;26.20;42.30;;;;;;5049229;28;20507;-57
2022/08/09 07:51:21;;;;;;;1.55;0.20;;;26.20;42.20;;;;;;5050748;28;20032;-60
2022/08/09 07:53:49;;;;;;;2.15;0.20;;;26.30;42.30;;;;;;5065368;28;20072;-61
2022/08/09 07:56:16;;;;;;;2.45;0.30;;;26.40;42.30;;;;;;5052001;28;20043;-59
2022/08/09 07:58:43;;;;;;;1.17;0.22;;;26.40;42.20;;;;;;5054838;28;20033;-59
2022/08/09 08:01:10;;;;;;;3.70;0.30;;;26.40;42.10;;;;;;5052389;28;20051;-59
2022/08/09 08:03:38;;;;;;;2.95;0.85;;;26.50;42.00;;;;;;5050945;28;20048;-56
2022/08/09 08:06:05;;;;;;;2.85;0.30;;;26.60;41.90;;;;;;5046696;28;20037;-57
2022/08/09 08:08:34;;;;;;;2.35;0.65;;;26.60;41.80;;;;;;5054785;28;20041;-56
2022/08/09 08:11:01;;;;;;;0.93;0.20;;;26.70;41.70;;;;;;5050375;28;20048;-57
2022/08/09 08:13:28;;;;;;;4.20;0.30;;;26.80;41.70;;;;;;5054722;28;20044;-59
2022/08/09 08:15:55;;;;;;;2.70;0.30;;;26.80;41.60;;;;;;5050154;28;20513;-59
2022/08/09 08:18:23;;;;;;;8.38;0.30;;;26.90;41.60;;;;;;5054477;28;20390;-55
2022/08/09 08:20:50;;;;;;;3.10;0.20;;;26.90;41.50;;;;;;5050164;28;20533;-62
2022/08/09 08:23:19;;;;;;;1.90;0.20;;;27.00;41.50;;;;;;5045344;28;20068;-55
2022/08/09 08:25:49;;;;;;;4.63;0.70;;;27.00;41.30;;;;;;5047207;28;20497;-61
2022/08/09 08:28:17;;;;;;;16.70;0.75;;;27.10;41.20;;;;;;5047998;28;20044;-53
2022/08/09 08:30:45;;;;;;;4.43;0.17;;;27.10;41.10;;;;;;5059827;28;20044;-49
2022/08/09 08:33:12;;;;;;;1.63;0.10;;;27.20;41.00;;;;;;5051139;28;20045;-54
2022/08/09 08:35:39;;;;;;;1.05;0.20;;;27.30;40.90;;;;;;5035627;28;20041;-59
2022/08/09 08:38:06;;;;;;;2.60;0.10;;;27.30;40.80;;;;;;5049473;28;20045;-53
2022/08/09 08:40:34;;;;;;;1.95;0.30;;;27.40;40.80;;;;;;5049277;28;20044;-59
2022/08/09 08:43:04;;;;;;;1.13;0.20;;;27.40;40.70;;;;;;5058912;28;20520;-54
2022/08/09 08:45:34;;;;;;;1.27;0.13;;;27.50;40.70;;;;;;5049861;28;20045;-51
2022/08/09 08:48:01;;;;;;;3.97;0.30;;;27.50;40.60;;;;;;5031266;28;20116;-54
2022/08/09 08:50:29;;;;;;;2.83;0.20;;;27.60;40.60;;;;;;5049929;28;20045;-51
2022/08/09 08:52:56;;;;;;;1.27;0.30;;;27.50;40.40;;;;;;5049569;28;20040;-53
2022/08/09 08:55:23;;;;;;;2.85;0.17;;;27.60;40.40;;;;;;5049323;28;20546;-58
2022/08/09 08:57:53;;;;;;;1.33;0.10;;;27.60;40.30;;;;;;5060945;28;20519;-58
2022/08/09 09:00:22;;;;;;;2.00;0.17;;;27.70;40.20;;;;;;5052126;28;20492;-59
2022/08/09 09:02:50;;;;;;;2.05;0.17;;;27.70;40.10;;;;;;5049562;28;20045;-58
2022/08/09 09:05:23;;;;;;;1.27;0.40;;;27.80;40.70;;;;;;5048687;28;20521;-62
2022/08/09 09:07:52;;;;;;;3.67;0.17;;;27.80;39.90;;;;;;5049764;28;20523;-62
2022/08/09 09:10:19;;;;;;;2.72;0.10;;;27.80;39.90;;;;;;5051112;28;20047;-61
2022/08/09 09:12:49;;;;;;;2.58;0.20;;;27.90;39.80;;;;;;5049155;28;20083;-60
2022/08/09 09:15:16;;;;;;;4.68;0.73;;;27.90;39.60;;;;;;5047749;28;20044;-59
2022/08/09 09:17:45;;;;;;;0.85;0.20;;;27.90;39.50;;;;;;5047298;28;20135;-60
2022/08/09 09:20:14;;;;;;;2.15;0.30;;;28.00;39.60;;;;;;5043405;28;20053;-60
2022/08/09 09:22:51;;;;;;;3.10;1.00;;;28.00;39.40;;;;;;5045158;28;20052;-60
2022/08/09 09:25:32;;;;;;;1.30;0.28;;;28.10;39.30;;;;;;5046028;28;20040;-61
2022/08/09 09:27:59;;;;;;;5.68;0.40;;;28.00;39.00;;;;;;5042753;28;20047;-61
2022/08/09 09:30:26;;;;;;;2.85;0.20;;;28.10;38.90;;;;;;5043936;28;20048;-60
2022/08/09 09:33:10;;;;;;;8.73;1.05;;;28.10;38.80;;;;;;5053725;28;20569;-59
2022/08/09 09:35:52;;;;;;;0.50;0.10;;;28.20;38.60;;;;;;5052014;28;20059;-59
2022/08/09 09:38:22;;;;;;;5.00;0.25;;;28.20;38.40;;;;;;5046202;28;20060;-48
2022/08/09 09:40:50;;;;;;;3.65;0.20;;;28.20;38.30;;;;;;5048979;28;20555;-50
2022/08/09 09:43:19;;;;;;;1.88;0.20;;;28.20;38.10;;;;;;5039323;28;20037;-50
2022/08/09 09:45:51;;;;;;;1.63;0.50;;;28.30;38.00;;;;;;5048522;28;20123;-51
2022/08/09 09:48:21;;;;;;;3.33;0.65;;;28.30;37.80;;;;;;5048880;28;20586;-52
2022/08/09 09:50:52;;;;;;;2.53;0.20;;;28.40;37.70;;;;;;5048507;28;20076;-55
2022/08/09 09:53:21;;;;;;;5.10;0.32;;;28.40;37.70;;;;;;5030107;28;20057;-47
2022/08/09 09:55:54;;;;;;;4.13;0.73;;;28.40;37.70;;;;;;5048818;28;20100;-66
2022/08/09 09:58:21;;;;;;;1.65;0.90;;;28.50;37.80;;;;;;5048583;28;20063;-58
2022/08/09 10:00:50;;;;;;;1.20;0.20;;;28.50;37.90;;;;;;5048078;28;20045;-56
2022/08/09 10:03:36;;;;;;;1.67;0.98;;;28.50;37.90;;;;;;5053358;28;20094;-64
2022/08/09 10:06:03;;;;;;;1.90;0.20;;;28.50;37.80;;;;;;5030680;28;20405;-60
2022/08/09 10:08:30;;;;;;;3.20;0.35;;;28.60;37.90;;;;;;5041978;28;20043;-62
2022/08/09 10:10:57;;;;;;;2.53;0.30;;;28.60;37.80;;;;;;5048916;28;20053;-55
2022/08/09 10:13:24;;;;;;;1.67;0.15;;;28.60;37.70;;;;;;5055520;28;20037;-58
2022/08/09 10:15:52;;;;;;;4.00;0.20;;;28.70;37.70;;;;;;5048965;28;20474;-56
2022/08/09 10:18:20;;;;;;;1.75;0.10;;;28.70;37.50;;;;;;5048314;28;20039;-55
2022/08/09 10:20:48;;;;;;;0.50;0.47;;;28.80;37.30;;;;;;5047128;28;20525;-55
2022/08/09 10:23:18;;;;;;;3.88;0.22;;;28.80;37.30;;;;;;5059096;28;20045;-55
2022/08/09 10:25:46;;;;;;;0.77;0.20;;;28.80;37.20;;;;;;5048091;28;20112;-53
2022/08/09 10:28:13;;;;;;;2.30;0.20;;;28.80;37.10;;;;;;5048664;28;20044;-53
2022/08/09 10:30:41;;;;;;;5.13;0.30;;;28.90;37.20;;;;;;5047344;28;20095;-55
2022/08/09 10:33:09;;;;;;;3.38;0.20;;;28.90;37.10;;;;;;5048847;28;20127;-54
2022/08/09 10:35:38;;;;;;;7.10;0.30;;;29.00;37.10;;;;;;5047691;28;20086;-60
2022/08/09 10:38:06;;;;;;;3.47;0.20;;;29.00;37.20;;;;;;5050908;28;20137;-60
2022/08/09 10:40:33;;;;;;;5.57;0.30;;;29.00;37.10;;;;;;5049314;28;20051;-63
2022/08/09 10:43:00;;;;;;;3.33;0.10;;;29.00;37.00;;;;;;5052860;28;20398;-62
2022/08/09 10:45:30;;;;;;;5.68;0.10;;;29.00;36.90;;;;;;5040881;28;20047;-64
2022/08/09 10:48:03;;;;;;;4.55;0.93;;;29.10;36.90;;;;;;5050915;28;20041;-64
2022/08/09 10:53:42;;;;;;;1.52;0.30;;;29.10;36.70;;;;;;5055433;28;20208;-66
2022/08/09 10:56:18;;;;;;;1.02;0.30;;;29.10;36.70;;;;;;5056785;28;20066;-59
2022/08/09 10:58:45;;;;;;;0.30;0.15;;;29.10;36.70;;;;;;5054593;28;20041;-66
2022/08/09 11:01:38;;;;;;;9.43;0.20;;;29.20;36.80;;;;;;5053433;28;20045;-64
2022/08/09 11:04:19;;;;;;;0.85;0.10;;;29.30;36.90;;;;;;5039786;28;20398;-64
2022/08/09 11:06:49;;;;;;;2.17;0.20;;;29.30;37.00;;;;;;5049370;28;20538;-65
2022/08/09 11:09:18;;;;;;;0.52;0.47;;;29.30;37.00;;;;;;5051934;28;20068;-55
2022/08/09 11:12:14;;;;;;;0.95;0.10;;;29.30;36.80;;;;;;5049417;28;20045;-60
2022/08/09 11:14:43;;;;;;;2.40;0.40;;;29.40;36.80;;;;;;5048274;28;20041;-58
2022/08/09 11:17:51;;;;;;;1.90;0.20;;;29.40;36.70;;;;;;5048487;28;20073;-60
2022/08/09 11:20:37;;;;;;;0.77;0.20;;;29.50;36.70;;;;;;5049673;28;20049;-66
2022/08/09 11:23:06;;;;;;;;;;;29.50;36.60;;;;;;5049770;28;20080;-62
2022/08/09 11:25:48;;;;;;;1.55;0.38;;;29.50;36.60;;;;;;5047075;28;19931;-61
2022/08/09 11:28:39;;;;;;;6.60;1.65;;;29.50;36.50;;;;;;5051555;28;20127;-62
2022/08/09 11:31:46;;;;;;;0.20;0.10;;;29.60;36.40;;;;;;5062203;28;20068;-67
2022/08/09 11:34:34;;;;;;;4.88;0.17;;;29.70;36.40;;;;;;5047886;28;20053;-62
2022/08/09 11:37:03;;;;;;;5.18;0.20;;;29.70;36.80;;;;;;5043772;28;20075;-59
2022/08/09 11:39:31;;;;;;;6.28;0.30;;;29.80;36.30;;;;;;5042747;28;20037;-56
2022/08/09 11:42:07;;;;;;;7.82;0.30;;;29.80;36.20;;;;;;5044446;28;20041;-56
2022/08/09 11:44:44;;;;;;;8.52;0.38;;;29.80;36.10;;;;;;5047309;28;20036;-57
2022/08/09 11:47:11;;;;;;;5.68;1.00;;;29.90;36.10;;;;;;5045212;28;20040;-53
2022/08/09 11:49:57;;;;;;;0.85;0.10;;;29.90;36.10;;;;;;5047070;28;20052;-57
2022/08/09 11:52:26;;;;;;;0.17;0.10;;;30.00;35.90;;;;;;5046649;28;20041;-55
2022/08/09 11:55:31;;;;;;;1.05;0.20;;;30.00;35.90;;;;;;5046658;28;20042;-57
2022/08/09 11:58:01;;;;;;;1.30;0.30;;;30.10;35.70;;;;;;5047666;28;20040;-58
2022/08/09 12:00:30;;;;;;;2.15;0.20;;;30.10;35.50;;;;;;5045140;28;20076;-55
2022/08/09 12:02:59;;;;;;;0.50;0.10;;;30.20;35.50;;;;;;5044896;28;20133;-56
2022/08/09 12:05:34;;;;;;;3.00;0.20;;;30.20;35.30;;;;;;5044374;28;20040;-56
2022/08/09 12:08:07;;;;;;;0.55;0.20;;;30.30;35.20;;;;;;5046681;28;20068;-57
2022/08/09 12:10:35;;;;;;;0.47;0.10;;;30.30;35.10;;;;;;5042451;28;20059;-56
2022/08/09 12:13:03;;;;;;;1.45;0.20;;;30.30;35.00;;;;;;5046805;28;20568;-55
2022/08/09 12:15:30;;;;;;;2.05;0.20;;;30.40;34.90;;;;;;5046549;28;20044;-56
2022/08/09 12:17:57;;;;;;;3.10;0.20;;;30.40;34.80;;;;;;5046176;28;20033;-54
2022/08/09 12:20:25;;;;;;;2.25;0.28;;;30.50;34.80;;;;;;5046513;28;20103;-56
2022/08/09 12:22:56;;;;;;;0.57;0.20;;;30.50;34.70;;;;;;5046378;28;20041;-56
2022/08/09 12:25:25;;;;;;;5.38;0.30;;;30.60;34.80;;;;;;5030582;28;20120;-57
2022/08/09 12:28:10;;;;;;;3.85;0.10;;;30.60;34.70;;;;;;5039875;28;20037;-56
2022/08/09 12:30:37;;;;;;;3.78;0.10;;;30.60;34.50;;;;;;5042942;28;20124;-54
2022/08/09 12:33:04;;;;;;;0.85;0.20;;;30.60;34.50;;;;;;5048708;28;20051;-56
2022/08/09 12:35:31;;;;;;;1.55;0.20;;;30.70;34.50;;;;;;5047798;28;20114;-56
2022/08/09 12:37:59;;;;;;;2.95;0.15;;;30.80;34.40;;;;;;5053020;28;20055;-57
2022/08/09 12:40:27;;;;;;;2.33;0.32;;;30.80;34.30;;;;;;5057661;28;20043;-56
2022/08/09 12:42:55;;;;;;;0.10;0.10;;;30.80;34.20;;;;;;5050006;28;20501;-56
2022/08/09 12:45:24;;;;;;;1.02;0.10;;;30.90;34.20;;;;;;5033759;28;20053;-57
2022/08/09 12:47:52;;;;;;;0.57;0.20;;;31.00;34.20;;;;;;5049482;28;20543;-53
2022/08/09 12:50:19;;;;;;;0.63;0.38;;;31.00;34.60;;;;;;5049752;28;20041;-57
2022/08/09 12:52:48;;;;;;;0.45;0.40;;;31.00;33.90;;;;;;5050102;28;20103;-57
2022/08/09 12:55:24;;;;;;;0.98;0.20;;;31.10;33.90;;;;;;5049780;28;20041;-56
2022/08/09 12:57:51;;;;;;;0.40;0.20;;;31.10;33.70;;;;;;5049263;28;20098;-52
2022/08/09 13:00:20;;;;;;;1.80;0.20;;;31.20;33.70;;;;;;5049430;28;20041;-54
2022/08/09 13:02:51;;;;;;;1.05;0.20;;;31.20;33.60;;;;;;5049488;28;20095;-55